Time;durP1;ratioP1;P1;durP2;ratioP2;P2;SDS_P1;SDS_P2;PMS_P1;PMS_P2;Temp;Humidity;BMP_temperature;BMP_pressure;BME280_temperature;BME280_humidity;BME280_pressure;Samples;Min_cycle;Max_cycle;Signal;HPM_P1;HPM_P2
2023/02/18 00:00:18;;;;;;;;;14.33;13.00;;;;;15.55;100.00;102451.00;5141490;27;45542;-74
2023/02/18 00:02:45;;;;;;;;;14.00;14.00;;;;;15.46;100.00;102429.56;5141736;27;45275;-74
2023/02/18 00:05:11;;;;;;;;;15.33;13.67;;;;;15.50;100.00;102440.75;5124177;27;45451;-73
2023/02/18 00:07:39;;;;;;;;;15.00;13.67;;;;;15.50;100.00;102438.09;5141564;27;45532;-74
2023/02/18 00:10:07;;;;;;;;;12.00;12.00;;;;;15.44;100.00;102431.56;5123802;27;45501;-74
2023/02/18 00:12:32;;;;;;;;;12.67;12.67;;;;;15.47;100.00;102433.09;5124012;27;45278;-74
2023/02/18 00:14:58;;;;;;;;;14.00;12.00;;;;;15.47;100.00;102428.53;5137850;27;45381;-73
2023/02/18 00:17:30;;;;;;;;;11.33;11.33;;;;;15.39;100.00;102426.69;5115946;27;45899;-73
2023/02/18 00:19:58;;;;;;;;;10.67;10.67;;;;;15.44;100.00;102433.41;5123981;27;46670;-74
2023/02/18 00:22:24;;;;;;;;;11.00;11.00;;;;;15.40;100.00;102425.72;5138045;27;45329;-74
2023/02/18 00:24:50;;;;;;;;;12.67;12.67;;;;;15.34;100.00;102418.31;5123797;27;45324;-74
2023/02/18 00:27:18;;;;;;;;;9.67;9.67;;;;;15.34;100.00;102422.84;5123839;27;45746;-74
2023/02/18 00:29:44;;;;;;;;;12.00;12.00;;;;;15.39;100.00;102432.03;5110279;27;46205;-74
2023/02/18 00:32:10;;;;;;;;;9.33;9.33;;;;;15.36;100.00;102423.50;5123776;27;45367;-73
2023/02/18 00:34:38;;;;;;;;;9.67;9.67;;;;;15.35;100.00;102419.13;5105966;27;45352;-74
2023/02/18 00:37:04;;;;;;;;;12.00;12.00;;;;;15.40;100.00;102428.38;5117605;27;45424;-74
2023/02/18 00:39:32;;;;;;;;;10.33;10.33;;;;;15.36;100.00;102423.50;5141094;27;45664;-73
2023/02/18 00:41:57;;;;;;;;;10.00;9.33;;;;;15.38;100.00;102419.66;5123826;27;45346;-73
2023/02/18 00:44:23;;;;;;;;;13.00;12.33;;;;;15.38;100.00;102425.03;5127464;27;45660;-74
2023/02/18 00:46:48;;;;;;;;;10.67;10.00;;;;;15.38;100.00;102414.31;5140684;27;47584;-74
2023/02/18 00:49:15;;;;;;;;;12.00;12.00;;;;;15.40;100.00;102424.84;5142255;27;46121;-74
2023/02/18 00:51:41;;;;;;;;;11.33;11.33;;;;;15.37;100.00;102406.44;5142452;27;45282;-73
2023/02/18 00:54:07;;;;;;;;;14.00;14.00;;;;;15.41;100.00;102413.13;5123824;27;45421;-73
2023/02/18 00:56:33;;;;;;;;;7.00;7.00;;;;;15.43;100.00;102415.66;5137130;27;45328;-73
2023/02/18 00:58:58;;;;;;;;;12.67;12.67;;;;;15.37;100.00;102401.06;5137255;27;45682;-73
2023/02/18 01:01:26;;;;;;;;;10.00;9.67;;;;;15.35;100.00;102405.75;5137251;27;45371;-73
2023/02/18 01:03:52;;;;;;;;;13.67;12.33;;;;;15.39;100.00;102415.16;5110119;27;45381;-73
2023/02/18 01:06:21;;;;;;;;;11.33;11.33;;;;;15.39;100.00;102415.16;5138637;27;45517;-73
2023/02/18 01:08:47;;;;;;;;;14.00;11.67;;;;;15.31;100.00;102402.59;5110055;27;46998;-74
2023/02/18 01:11:13;;;;;;;;;10.00;10.00;;;;;15.36;100.00;102412.81;5122968;27;45950;-73
2023/02/18 01:13:42;;;;;;;;;13.00;10.33;;;;;15.37;100.00;102404.59;5123186;27;45224;-73
2023/02/18 01:16:08;;;;;;;;;12.00;11.00;;;;;15.37;100.00;102396.56;5123307;27;45430;-73
2023/02/18 01:18:41;;;;;;;;;10.00;10.00;;;;;15.37;100.00;102399.25;5123072;27;45574;-73
2023/02/18 01:21:08;;;;;;;;;9.00;9.00;;;;;15.30;100.00;102392.03;5121615;27;46501;-74
2023/02/18 01:23:39;;;;;;;;;10.67;10.67;;;;;15.37;100.00;102403.75;5128285;27;45383;-74
2023/02/18 01:26:06;;;;;;;;;11.33;11.00;;;;;15.35;100.00;102401.25;5122604;27;45267;-74
2023/02/18 01:28:31;;;;;;;;;7.00;7.00;;;;;15.30;100.00;102386.66;5141812;27;45696;-73
2023/02/18 01:30:57;;;;;;;;;10.33;9.33;;;;;15.30;100.00;102382.16;5139718;27;45356;-74
2023/02/18 01:33:23;;;;;;;;;9.00;8.67;;;;;15.36;100.00;102392.19;5123172;27;45395;-73
2023/02/18 01:35:51;;;;;;;;;11.00;11.00;;;;;15.36;100.00;102386.84;5141630;27;45318;-73
2023/02/18 01:38:16;;;;;;;;;10.00;10.00;;;;;15.37;100.00;102385.00;5122828;27;45724;-73
2023/02/18 01:40:51;;;;;;;;;8.00;7.33;;;;;15.34;100.00;102374.63;5122195;27;45288;-74
2023/02/18 01:43:18;;;;;;;;;11.00;11.00;;;;;15.31;100.00;102378.47;5122924;27;45390;-73
2023/02/18 01:46:16;;;;;;;;;12.67;10.67;;;;;15.33;100.00;102378.31;5119032;27;45216;-73
2023/02/18 01:48:53;;;;;;;;;9.67;9.33;;;;;15.37;100.00;102376.97;5117656;27;47339;-73
2023/02/18 01:51:24;;;;;;;;;11.00;11.00;;;;;15.33;100.00;102363.09;5122713;27;45440;-73
2023/02/18 01:54:15;;;;;;;;;10.00;10.00;;;;;15.38;100.00;102375.94;5119457;27;45330;-74
2023/02/18 01:56:50;;;;;;;;;12.00;10.67;;;;;15.37;100.00;102372.47;5116693;27;46341;-73
2023/02/18 01:59:22;;;;;;;;;13.00;12.00;;;;;15.33;100.00;102368.44;5122410;27;45909;-74
2023/02/18 02:01:48;;;;;;;;;12.00;10.33;;;;;15.32;100.00;102358.72;5136322;27;45391;-73
2023/02/18 02:04:22;;;;;;;;;12.00;12.00;;;;;15.34;100.00;102356.72;5119192;27;45466;-73
2023/02/18 02:06:47;;;;;;;;;11.67;11.67;;;;;15.31;100.00;102359.72;5116610;27;45570;-73
2023/02/18 02:09:20;;;;;;;;;13.33;13.33;;;;;15.27;100.00;102353.84;5127104;27;46764;-73
2023/02/18 02:12:37;;;;;;;;;13.00;13.00;;;;;15.25;100.00;102350.53;5136088;27;45313;-73
2023/02/18 02:15:30;;;;;;;;;16.00;15.00;;;;;15.26;100.00;102352.19;5090246;27;45481;-73
2023/02/18 02:18:07;;;;;;;;;14.33;14.00;;;;;15.22;100.00;102344.63;5121700;27;45289;-73
2023/02/18 02:21:22;;;;;;;;;12.33;12.00;;;;;15.21;100.00;102349.19;5121892;27;46984;-73
2023/02/18 02:24:08;;;;;;;;;10.33;10.33;;;;;15.17;100.00;102336.28;5080088;27;45619;-73
2023/02/18 02:26:52;;;;;;;;;9.33;8.33;;;;;15.19;100.00;102342.28;5109471;27;45367;-73
2023/02/18 02:29:53;;;;;;;;;10.67;9.00;;;;;15.21;100.00;102348.34;5121954;27;45837;-74
2023/02/18 02:32:44;;;;;;;;;9.67;9.67;;;;;15.17;100.00;102339.78;5107300;27;45543;-74
2023/02/18 02:35:25;;;;;;;;;10.00;10.00;;;;;15.17;100.00;102334.44;5090556;27;45482;-73
2023/02/18 02:38:32;;;;;;;;;12.67;12.67;;;;;15.18;100.00;102327.25;5122158;27;45263;-73
2023/02/18 02:41:18;;;;;;;;;13.67;11.00;;;;;15.15;100.00;102317.69;5106084;27;45558;-74
2023/02/18 02:44:02;;;;;;;;;14.00;13.00;;;;;15.15;100.00;102321.19;5119261;27;45689;-74
2023/02/18 02:46:35;;;;;;;;;10.00;10.00;;;;;15.13;100.00;102311.66;5121984;27;45424;-74
2023/02/18 02:49:22;;;;;;;;;11.67;11.67;;;;;15.13;100.00;102317.88;5121800;27;45371;-74
2023/02/18 02:52:16;;;;;;;;;10.33;9.33;;;;;15.12;100.00;102315.34;5121370;27;45546;-73
2023/02/18 02:54:44;;;;;;;;;11.00;10.00;;;;;15.06;100.00;102311.50;5121581;27;45631;-73
2023/02/18 02:57:19;;;;;;;;;12.00;11.33;;;;;15.11;100.00;102319.88;5122788;27;45633;-73
2023/02/18 02:59:51;;;;;;;;;12.33;9.00;;;;;15.08;100.00;102312.16;5125393;27;45376;-73
2023/02/18 03:02:22;;;;;;;;;10.00;10.00;;;;;15.07;100.00;102309.66;5111939;27;45749;-73
2023/02/18 03:05:13;;;;;;;;;10.67;10.00;;;;;15.10;100.00;102315.53;5124536;27;45624;-73
2023/02/18 03:08:08;;;;;;;;;12.67;10.67;;;;;15.16;100.00;102319.38;5125313;27;46211;-73
2023/02/18 03:11:13;;;;;;;;;10.67;10.67;;;;;15.17;100.00;102314.84;5113299;27;45318;-73
2023/02/18 03:13:52;;;;;;;;;10.67;10.33;;;;;15.13;100.00;102320.53;5019037;28;45601;-74
2023/02/18 03:16:26;;;;;;;;;9.33;9.33;;;;;15.13;100.00;102309.84;5019285;28;45645;-73
2023/02/18 03:19:27;;;;;;;;;11.67;11.67;;;;;15.15;100.00;102309.66;5086629;27;45293;-73
2023/02/18 03:22:03;;;;;;;;;11.00;9.33;;;;;15.06;100.00;102303.47;5107665;27;45441;-74
2023/02/18 03:24:34;;;;;;;;;11.67;10.33;;;;;15.10;100.00;102301.28;5124008;27;45498;-73
2023/02/18 03:27:13;;;;;;;;;5.67;5.67;;;;;15.11;100.00;102297.59;5124400;27;47630;-74
2023/02/18 03:29:40;;;;;;;;;10.00;10.00;;;;;15.10;100.00;102309.31;5124682;27;45390;-74
2023/02/18 03:32:13;;;;;;;;;10.00;10.00;;;;;15.06;100.00;102289.25;5125093;27;45248;-74
2023/02/18 03:34:43;;;;;;;;;10.33;9.33;;;;;15.07;100.00;102290.91;5121396;27;45615;-74
2023/02/18 03:37:12;;;;;;;;;10.00;10.00;;;;;15.06;100.00;102289.25;5118376;27;45908;-73
2023/02/18 03:39:42;;;;;;;;;8.00;8.00;;;;;15.01;100.00;102289.72;5137321;27;45357;-74
2023/02/18 03:42:08;;;;;;;;;9.33;9.33;;;;;15.08;100.00;102288.06;5124510;27;45301;-73
2023/02/18 03:44:34;;;;;;;;;10.00;9.67;;;;;15.10;100.00;102291.41;5121236;27;45455;-73
2023/02/18 03:46:59;;;;;;;;;8.33;8.00;;;;;15.08;100.00;102290.75;5118771;27;46278;-74
2023/02/18 03:49:25;;;;;;;;;11.33;11.33;;;;;15.07;100.00;102290.91;5124663;27;45340;-74
2023/02/18 03:51:51;;;;;;;;;7.33;7.33;;;;;15.05;100.00;102284.91;5124710;27;45380;-73
2023/02/18 03:54:19;;;;;;;;;10.33;9.33;;;;;15.04;100.00;102281.38;5124509;27;45612;-73
2023/02/18 03:56:47;;;;;;;;;10.00;10.00;;;;;15.09;100.00;102287.03;5141346;27;46130;-74
2023/02/18 03:59:13;;;;;;;;;10.33;10.33;;;;;15.06;100.00;102284.72;5124208;27;45325;-74
2023/02/18 04:01:39;;;;;;;;;11.67;11.67;;;;;15.07;100.00;102283.72;5140285;27;45343;-74
2023/02/18 04:04:05;;;;;;;;;9.00;9.00;;;;;15.04;100.00;102280.53;5124178;27;45365;-73
2023/02/18 04:06:31;;;;;;;;;12.00;12.00;;;;;15.08;100.00;102284.56;5123641;27;46755;-73
2023/02/18 04:08:56;;;;;;;;;10.33;10.33;;;;;15.06;100.00;102281.22;5124323;27;45566;-73
2023/02/18 04:11:22;;;;;;;;;10.67;10.00;;;;;15.12;100.00;102299.28;5140680;27;45511;-74
2023/02/18 04:13:47;;;;;;;;;10.67;10.67;;;;;15.07;100.00;102296.25;5142939;27;45351;-74
2023/02/18 04:16:13;;;;;;;;;13.33;13.33;;;;;15.05;100.00;102287.56;5142657;27;46191;-74
2023/02/18 04:18:39;;;;;;;;;10.33;10.33;;;;;14.98;100.00;102290.91;5143177;27;45384;-74
2023/02/18 04:21:05;;;;;;;;;13.00;12.00;;;;;14.96;100.00;102284.88;5124244;27;45408;-73
2023/02/18 04:23:30;;;;;;;;;13.33;12.00;;;;;14.95;100.00;102287.72;5141445;27;45429;-74
2023/02/18 04:25:56;;;;;;;;;15.67;14.00;;;;;14.94;100.00;102289.56;5123805;27;47731;-73
2023/02/18 04:28:24;;;;;;;;;11.67;10.67;;;;;14.93;100.00;102293.22;5124074;27;45257;-73
2023/02/18 04:30:53;;;;;;;;;14.33;12.33;;;;;14.94;100.00;102297.59;5123711;27;45321;-73
2023/02/18 04:33:21;;;;;;;;;13.67;13.67;;;;;14.86;100.00;102284.19;5123771;27;46889;-73
2023/02/18 04:35:47;;;;;;;;;10.67;10.67;;;;;14.84;100.00;102288.84;5140255;27;47644;-73
2023/02/18 04:38:13;;;;;;;;;15.00;12.00;;;;;14.82;100.00;102293.56;5123938;27;45259;-74
2023/02/18 04:40:39;;;;;;;;;15.00;13.33;;;;;14.79;100.00;102288.53;5123597;27;45333;-73
2023/02/18 04:43:12;;;;;;;;;14.67;14.33;;;;;14.83;100.00;102295.22;5123894;27;45773;-73
2023/02/18 04:45:38;;;;;;;;;13.33;12.33;;;;;14.78;100.00;102295.72;5123451;27;45732;-73
2023/02/18 04:48:06;;;;;;;;;12.67;11.33;;;;;14.79;100.00;102293.88;5123585;27;45357;-73
2023/02/18 04:50:34;;;;;;;;;12.67;12.67;;;;;14.78;100.00;102290.38;5123714;27;45364;-73
2023/02/18 04:53:00;;;;;;;;;10.67;10.67;;;;;14.81;100.00;102290.03;5142457;27;45502;-73
2023/02/18 04:55:26;;;;;;;;;13.00;13.00;;;;;14.74;100.00;102289.00;5123171;27;45384;-73
2023/02/18 04:57:59;;;;;;;;;11.00;11.00;;;;;14.72;100.00;102280.28;5137459;27;45447;-74
2023/02/18 05:00:27;;;;;;;;;12.00;11.00;;;;;14.71;100.00;102282.13;5123214;27;45396;-73
2023/02/18 05:02:53;;;;;;;;;10.00;10.00;;;;;14.71;100.00;102289.31;5123467;27;45412;-73
2023/02/18 05:05:18;;;;;;;;;13.00;13.00;;;;;14.70;100.00;102279.63;5123020;27;45678;-73
2023/02/18 05:07:44;;;;;;;;;12.00;12.00;;;;;14.71;100.00;102290.16;5123313;27;45246;-74
2023/02/18 05:10:16;;;;;;;;;9.67;9.67;;;;;14.66;100.00;102281.78;5137474;27;45421;-73
2023/02/18 05:12:42;;;;;;;;;9.33;9.33;;;;;14.65;100.00;102285.47;5123214;27;45509;-73
2023/02/18 05:15:08;;;;;;;;;10.00;9.00;;;;;14.67;100.00;102294.19;5123017;27;46308;-74
2023/02/18 05:17:33;;;;;;;;;10.33;10.33;;;;;14.58;100.00;102279.91;5110660;27;45254;-73
2023/02/18 05:19:59;;;;;;;;;11.00;11.00;;;;;14.57;100.00;102286.28;5121507;27;45490;-73
2023/02/18 05:22:27;;;;;;;;;11.00;11.00;;;;;14.63;100.00;102290.13;5140498;27;45581;-73
2023/02/18 05:25:14;;;;;;;;;11.33;11.00;;;;;14.64;100.00;102292.63;5118562;27;47620;-77
2023/02/18 05:27:39;;;;;;;;;14.00;14.00;;;;;14.65;100.00;102288.13;5114595;27;45399;-73
2023/02/18 05:30:06;;;;;;;;;13.00;12.33;;;;;14.78;100.00;102298.38;5101951;27;45382;-73
2023/02/18 05:32:32;;;;;;;;;12.33;12.33;;;;;14.72;100.00;102283.81;5104993;27;45335;-73
2023/02/18 05:34:57;;;;;;;;;12.33;10.67;;;;;14.83;100.00;102306.78;5102420;27;46286;-74
2023/02/18 05:37:23;;;;;;;;;14.67;14.00;;;;;14.77;100.00;102296.69;5102046;27;45292;-74
2023/02/18 05:39:48;;;;;;;;;9.33;9.33;;;;;14.72;100.00;102302.53;5121048;27;45217;-73
2023/02/18 05:42:16;;;;;;;;;8.33;8.33;;;;;14.66;100.00;102300.50;5101703;27;45388;-74
2023/02/18 05:44:42;;;;;;;;;11.33;9.67;;;;;14.64;100.00;102298.00;5102080;27;45418;-73
2023/02/18 05:47:12;;;;;;;;;11.00;10.67;;;;;14.57;100.00;102298.81;5120607;27;45934;-73
2023/02/18 05:49:39;;;;;;;;;10.33;9.67;;;;;14.57;100.00;102288.94;5098734;27;45289;-73
2023/02/18 05:52:05;;;;;;;;;10.00;10.00;;;;;14.55;100.00;102290.97;5097935;27;47500;-73
2023/02/18 05:54:31;;;;;;;;;10.00;8.33;;;;;14.54;100.00;102277.75;5102038;27;46493;-73
2023/02/18 05:56:56;;;;;;;;;11.00;11.00;;;;;14.59;100.00;102294.13;5120169;27;45361;-73
2023/02/18 05:59:22;;;;;;;;;11.67;9.00;;;;;14.42;100.00;102270.00;5120706;27;45353;-73
2023/02/18 06:01:48;;;;;;;;;11.33;10.67;;;;;14.52;100.00;102285.94;5113834;27;45681;-73
2023/02/18 06:04:14;;;;;;;;;11.00;11.00;;;;;14.51;100.00;102290.44;5102018;27;47476;-74
2023/02/18 06:06:40;;;;;;;;;8.67;8.67;;;;;14.55;100.00;102290.97;5125788;27;45340;-74
2023/02/18 06:09:06;;;;;;;;;10.33;10.33;;;;;14.55;100.00;102293.66;5120548;27;45373;-74
2023/02/18 06:11:32;;;;;;;;;13.67;11.67;;;;;14.46;100.00;102281.25;5120013;27;45197;-74
2023/02/18 06:13:58;;;;;;;;;8.00;7.50;;;;;14.49;100.00;102294.28;5101570;27;45521;-73
2023/02/18 06:16:24;;;;;;;;;12.67;11.00;;;;;14.49;100.00;102286.25;5120291;27;45260;-74
2023/02/18 06:18:49;;;;;;;;;10.00;8.33;;;;;14.49;100.00;102284.41;5120556;27;45274;-74
2023/02/18 06:21:14;;;;;;;;;9.67;9.33;;;;;14.46;100.00;102289.25;5119869;27;45465;-74
2023/02/18 06:23:40;;;;;;;;;10.00;10.00;;;;;14.45;100.00;102288.41;5123198;27;46316;-75
2023/02/18 06:26:05;;;;;;;;;12.00;12.00;;;;;14.43;100.00;102290.44;5120525;27;45352;-75
2023/02/18 06:28:31;;;;;;;;;10.67;10.67;;;;;14.35;100.00;102280.53;5122314;27;45364;-74
2023/02/18 06:30:56;;;;;;;;;8.67;7.67;;;;;14.40;100.00;102293.44;5140827;27;45346;-74
2023/02/18 06:33:22;;;;;;;;;12.33;9.33;;;;;14.42;100.00;102294.09;5143891;27;45310;-75
2023/02/18 06:35:59;;;;;;;;;8.00;8.00;;;;;14.37;100.00;102291.88;5125836;27;45348;-73
2023/02/18 06:38:24;;;;;;;;;9.33;9.33;;;;;14.34;100.00;102283.38;5144389;27;45483;-74
2023/02/18 06:40:50;;;;;;;;;10.33;10.33;;;;;14.41;100.00;102294.25;5144199;27;45336;-73
2023/02/18 06:43:16;;;;;;;;;10.67;10.67;;;;;14.42;100.00;102290.59;5141222;27;45965;-73
2023/02/18 06:45:41;;;;;;;;;11.67;11.00;;;;;14.37;100.00;102291.88;5119790;27;45582;-73
2023/02/18 06:48:07;;;;;;;;;13.33;12.67;;;;;14.37;100.00;102293.75;5137176;27;46154;-73
2023/02/18 06:50:32;;;;;;;;;10.33;10.33;;;;;14.38;100.00;102287.38;5139264;27;45205;-74
2023/02/18 06:52:58;;;;;;;;;11.33;10.33;;;;;14.38;100.00;102282.03;5125274;27;45999;-73
2023/02/18 06:55:24;;;;;;;;;13.33;9.67;;;;;14.41;100.00;102294.25;5143698;27;45342;-74
2023/02/18 06:57:49;;;;;;;;;11.00;9.33;;;;;14.37;100.00;102285.72;5143772;27;45250;-73
2023/02/18 07:00:15;;;;;;;;;9.67;9.67;;;;;14.37;100.00;102289.22;5143447;27;45459;-73
2023/02/18 07:02:40;;;;;;;;;10.67;10.33;;;;;14.37;100.00;102297.25;5143891;27;46208;-73
2023/02/18 07:05:06;;;;;;;;;9.67;9.33;;;;;14.33;100.00;102287.88;5143377;27;45330;-73
2023/02/18 07:07:31;;;;;;;;;9.00;9.00;;;;;14.36;100.00;102289.38;5143605;27;45342;-73
2023/02/18 07:09:56;;;;;;;;;8.67;7.00;;;;;14.36;100.00;102279.53;5143544;27;46497;-73
2023/02/18 07:12:22;;;;;;;;;9.00;9.00;;;;;14.38;100.00;102282.03;5143402;27;46127;-73
2023/02/18 07:14:47;;;;;;;;;10.00;9.33;;;;;14.39;100.00;102289.91;5124569;27;46069;-74
2023/02/18 07:17:13;;;;;;;;;9.00;8.67;;;;;14.36;100.00;102284.88;5143895;27;45356;-73
2023/02/18 07:19:39;;;;;;;;;7.33;7.33;;;;;14.35;100.00;102282.38;5138009;27;45548;-73
2023/02/18 07:22:04;;;;;;;;;8.00;8.00;;;;;14.35;100.00;102269.84;5135889;27;47307;-73
2023/02/18 07:24:29;;;;;;;;;7.00;7.00;;;;;14.38;100.00;102276.69;5124590;27;45643;-72
2023/02/18 07:26:55;;;;;;;;;8.67;7.33;;;;;14.39;100.00;102278.34;5143715;27;45490;-72
2023/02/18 07:29:20;;;;;;;;;8.00;8.00;;;;;14.39;100.00;102283.72;5124943;27;45463;-72
2023/02/18 07:31:45;;;;;;;;;8.67;8.33;;;;;14.39;100.00;102286.38;5143598;27;46110;-73
2023/02/18 07:34:11;;;;;;;;;9.00;9.00;;;;;14.41;100.00;102284.41;5143513;27;45321;-73
2023/02/18 07:36:37;;;;;;;;;7.67;7.67;;;;;14.41;100.00;102286.22;5143727;27;45223;-73
2023/02/18 07:39:02;;;;;;;;;9.67;9.67;;;;;14.42;100.00;102283.38;5143609;27;45438;-73
2023/02/18 07:41:27;;;;;;;;;13.00;13.00;;;;;14.42;100.00;102288.72;5143112;27;45380;-73
2023/02/18 07:43:53;;;;;;;;;12.67;10.00;;;;;14.41;100.00;102291.56;5124259;27;45290;-73
2023/02/18 07:46:18;;;;;;;;;12.33;11.67;;;;;14.40;100.00;102290.75;5143579;27;45212;-73
2023/02/18 07:48:44;;;;;;;;;10.33;10.00;;;;;14.41;100.00;102296.91;5143192;27;45285;-73
2023/02/18 07:51:11;;;;;;;;;12.67;12.67;;;;;14.41;100.00;102287.06;5143075;27;45946;-73
2023/02/18 07:53:37;;;;;;;;;11.00;10.00;;;;;14.46;100.00;102294.63;5143333;27;45477;-73
2023/02/18 07:56:03;;;;;;;;;12.67;12.67;;;;;14.48;100.00;102298.78;5143269;27;45352;-73
2023/02/18 07:58:31;;;;;;;;;8.33;8.33;;;;;14.49;100.00;102291.63;5143083;27;45385;-74
2023/02/18 08:00:57;;;;;;;;;6.67;6.33;;;;;14.45;100.00;102303.63;5143241;27;45264;-73
2023/02/18 08:03:25;;;;;;;;;8.00;8.00;;;;;14.49;100.00;102297.78;5143099;27;45271;-73
2023/02/18 08:05:51;;;;;;;;;9.00;7.67;;;;;14.48;100.00;102300.63;5143306;27;45415;-73
2023/02/18 08:08:20;;;;;;;;;8.33;8.33;;;;;14.46;100.00;102292.75;5142643;27;45464;-73
2023/02/18 08:10:47;;;;;;;;;8.33;8.33;;;;;14.45;100.00;102291.09;5142693;27;45474;-73
2023/02/18 08:13:12;;;;;;;;;6.33;6.00;;;;;14.46;100.00;102297.28;5142909;27;45233;-74
2023/02/18 08:15:39;;;;;;;;;9.33;8.00;;;;;14.43;100.00;102295.78;5141197;27;45428;-73
2023/02/18 08:18:06;;;;;;;;;9.33;8.00;;;;;14.47;100.00;102296.28;5136451;27;45353;-73
2023/02/18 08:20:35;;;;;;;;;8.67;8.67;;;;;14.47;100.00;102298.94;5122893;27;47131;-73
2023/02/18 08:23:00;;;;;;;;;8.00;7.33;;;;;14.48;100.00;102306.81;5136396;27;45772;-73
2023/02/18 08:25:27;;;;;;;;;8.00;8.00;;;;;14.51;100.00;102303.81;5122716;27;45609;-73
2023/02/18 08:27:52;;;;;;;;;6.67;6.67;;;;;14.55;100.00;102314.19;5140073;27;45307;-73
2023/02/18 08:30:17;;;;;;;;;7.00;6.67;;;;;14.54;100.00;102313.34;5139249;27;47058;-73
2023/02/18 08:32:43;;;;;;;;;6.67;6.33;;;;;14.50;99.06;102309.34;5123461;27;45738;-73
2023/02/18 08:35:09;;;;;;;;;6.00;6.00;;;;;14.51;100.00;102325.22;5141318;27;45485;-73
2023/02/18 08:37:34;;;;;;;;;5.67;5.67;;;;;14.47;99.92;102315.84;5141996;27;45156;-72
2023/02/18 08:40:02;;;;;;;;;5.00;5.00;;;;;14.50;99.69;102320.03;5142236;27;45570;-73
2023/02/18 08:42:27;;;;;;;;;5.00;5.00;;;;;14.50;99.70;102330.72;5142614;27;45280;-73
2023/02/18 08:44:52;;;;;;;;;5.33;5.00;;;;;14.50;99.69;102320.03;5142661;27;46460;-72
2023/02/18 08:47:18;;;;;;;;;8.00;8.00;;;;;14.52;99.90;102329.56;5123841;27;45938;-73
2023/02/18 08:49:43;;;;;;;;;5.33;5.33;;;;;14.57;99.89;102336.25;5142516;27;46187;-73
2023/02/18 08:52:08;;;;;;;;;4.00;4.00;;;;;14.59;99.66;102326.25;5142360;27;45307;-73
2023/02/18 08:54:34;;;;;;;;;3.33;2.67;;;;;14.59;99.26;102315.53;5141616;27;45425;-73
2023/02/18 08:56:59;;;;;;;;;3.67;3.67;;;;;14.64;99.42;102331.97;5142084;27;45489;-73
2023/02/18 08:59:25;;;;;;;;;3.33;2.33;;;;;14.66;99.47;102329.13;5142459;27;46183;-73
2023/02/18 09:01:50;;;;;;;;;2.67;2.33;;;;;14.70;98.67;102325.94;5142192;27;45241;-73
2023/02/18 09:04:16;;;;;;;;;4.33;4.33;;;;;14.71;98.58;102329.47;5123755;27;45345;-73
2023/02/18 09:06:42;;;;;;;;;3.33;3.33;;;;;14.74;98.70;102321.97;5142016;27;45566;-73
2023/02/18 09:09:07;;;;;;;;;2.67;2.33;;;;;14.76;98.88;102319.13;5137112;27;45375;-74
2023/02/18 09:11:33;;;;;;;;;5.33;4.33;;;;;14.76;97.48;102324.47;5141488;27;45384;-73
2023/02/18 09:13:58;;;;;;;;;2.00;2.00;;;;;14.83;97.72;102327.34;5141501;27;45329;-73
2023/02/18 09:16:23;;;;;;;;;3.00;3.00;;;;;14.87;98.04;102317.97;5141527;27;45505;-73
2023/02/18 09:18:49;;;;;;;;;3.00;3.00;;;;;14.95;97.93;102328.72;5140268;27;46284;-73
2023/02/18 09:21:17;;;;;;;;;4.67;4.67;;;;;14.97;96.85;102334.72;5141266;27;45322;-74
2023/02/18 09:23:43;;;;;;;;;3.67;3.67;;;;;14.99;96.64;102331.88;5118013;27;45382;-74
2023/02/18 09:26:11;;;;;;;;;3.67;3.67;;;;;15.01;96.65;102338.78;5140476;27;45321;-75
2023/02/18 09:28:37;;;;;;;;;3.00;3.00;;;;;15.08;95.24;102335.44;5141528;27;45238;-74
2023/02/18 09:31:04;;;;;;;;;2.67;1.33;;;;;15.11;96.10;102343.97;5141546;27;45275;-74
2023/02/18 09:33:30;;;;;;;;;1.67;1.67;;;;;15.08;94.79;102327.41;5138601;27;46080;-74
2023/02/18 09:35:55;;;;;;;;;2.33;2.33;;;;;15.10;94.69;102334.25;5141817;27;45320;-74
2023/02/18 09:38:20;;;;;;;;;1.33;1.33;;;;;15.08;95.14;102328.22;5126009;27;46744;-73
2023/02/18 09:40:52;;;;;;;;;3.00;2.33;;;;;15.16;95.82;102327.41;5141611;27;45316;-75
2023/02/18 09:43:40;;;;;;;;;3.33;3.33;;;;;15.21;95.35;102343.81;5141530;27;45436;-76
2023/02/18 09:46:17;;;;;;;;;9.67;4.67;;;;;15.20;95.43;102335.97;5141642;27;45357;-74
2023/02/18 09:48:45;;;;;;;;;1.00;1.00;;;;;15.22;95.16;102341.97;5141323;27;45608;-74
2023/02/18 09:51:14;;;;;;;;;2.00;1.67;;;;;15.30;95.78;102346.50;5106314;27;45418;-75
2023/02/18 09:53:44;;;;;;;;;2.00;2.00;;;;;15.33;94.85;102341.66;5111501;27;45351;-74
2023/02/18 09:56:13;;;;;;;;;1.33;1.33;;;;;15.32;95.22;102339.97;5137532;27;45438;-75
2023/02/18 09:58:39;;;;;;;;;2.67;2.67;;;;;15.30;93.83;102347.34;5121525;27;47322;-74
2023/02/18 10:01:14;;;;;;;;;0.33;0.33;;;;;15.21;92.73;102351.00;5140910;27;45369;-75
2023/02/18 10:03:42;;;;;;;;;0.00;0.00;;;;;15.17;92.15;102347.00;5138785;27;45801;-74
2023/02/18 10:06:16;;;;;;;;;2.00;2.00;;;;;15.15;92.89;102356.00;5139987;27;45370;-75
2023/02/18 10:08:45;;;;;;;;;1.00;1.00;;;;;15.15;93.05;102355.19;5141147;27;46300;-74
2023/02/18 10:11:35;;;;;;;;;1.00;1.00;;;;;15.21;93.54;102353.69;5140992;27;45259;-74
2023/02/18 10:14:01;;;;;;;;;2.00;1.00;;;;;15.21;93.22;102340.28;5111467;27;45408;-75
2023/02/18 10:16:27;;;;;;;;;1.00;1.00;;;;;15.23;91.87;102347.16;5122419;27;46065;-75
2023/02/18 10:18:56;;;;;;;;;3.00;2.00;;;;;15.22;92.36;102350.00;5121889;27;47354;-75
2023/02/18 10:21:25;;;;;;;;;2.33;2.33;;;;;15.26;92.34;102346.81;5140795;27;45234;-74
2023/02/18 10:24:00;;;;;;;;;1.67;1.67;;;;;15.28;92.21;102352.03;5121505;27;45495;-75
2023/02/18 10:26:27;;;;;;;;;1.33;1.33;;;;;15.26;91.51;102356.69;5140432;27;45404;-75
2023/02/18 10:28:52;;;;;;;;;2.00;2.00;;;;;15.27;91.92;102355.72;5140854;27;45421;-75
2023/02/18 10:31:27;;;;;;;;;3.67;3.67;;;;;15.30;92.09;102349.16;5141033;27;45354;-74
2023/02/18 10:34:03;;;;;;;;;0.00;0.00;;;;;15.32;91.45;102347.19;5140883;27;45439;-75
2023/02/18 10:36:28;;;;;;;;;7.67;5.67;;;;;15.36;91.96;102349.31;5112459;27;45764;-74
2023/02/18 10:39:17;;;;;;;;;2.00;2.00;;;;;15.38;92.26;102357.19;5127023;27;45385;-75
2023/02/18 10:41:49;;;;;;;;;2.33;2.00;;;;;15.39;92.04;102345.50;5131155;27;45367;-74
2023/02/18 10:44:29;;;;;;;;;2.67;2.67;;;;;15.42;92.14;102345.16;5132172;27;45691;-74
2023/02/18 10:47:10;;;;;;;;;0.33;0.33;;;;;15.50;91.64;102345.16;5115670;27;45978;-76
2023/02/18 10:49:50;;;;;;;;;1.00;1.00;;;;;15.52;90.95;102361.06;5133669;27;45631;-75
2023/02/18 10:52:17;;;;;;;;;1.33;1.00;;;;;15.50;88.76;102352.34;5115513;27;45362;-75
2023/02/18 10:54:57;;;;;;;;;1.67;1.67;;;;;15.52;88.29;102353.88;5130959;27;45325;-74
2023/02/18 10:57:24;;;;;;;;;3.67;2.00;;;;;15.49;89.37;102351.53;5133268;27;45656;-75
2023/02/18 10:59:59;;;;;;;;;1.00;1.00;;;;;15.53;89.98;102339.47;5105648;27;48298;-75
2023/02/18 11:02:30;;;;;;;;;3.00;1.00;;;;;15.63;89.13;102354.53;5134276;27;45333;-74
2023/02/18 11:04:58;;;;;;;;;1.00;1.00;;;;;15.63;88.89;102349.19;5119227;27;45367;-75
2023/02/18 11:07:32;;;;;;;;;0.33;0.00;;;;;15.66;88.89;102351.53;5113475;27;46060;-74
2023/02/18 11:10:15;;;;;;;;;0.33;0.00;;;;;15.71;90.24;102345.66;5122572;27;46782;-75
2023/02/18 11:12:49;;;;;;;;;4.00;2.00;;;;;15.75;89.98;102352.34;5132270;27;45238;-75
2023/02/18 11:15:15;;;;;;;;;2.00;1.00;;;;;15.71;89.20;102351.84;5135746;27;45313;-75
2023/02/18 11:17:42;;;;;;;;;4.00;2.00;;;;;15.64;89.28;102348.16;5121104;27;45972;-74
2023/02/18 11:20:31;;;;;;;;;1.67;1.67;;;;;15.66;89.72;102354.19;5138662;27;46077;-75
2023/02/18 11:23:06;;;;;;;;;2.00;2.00;;;;;15.69;90.10;102347.66;5131397;27;45377;-74